Decoded Metar for KZPH ( in ) (IATA:) | Meteo·Mobile Aviation Weather
aviador You're here:

KZPH Decoded Metar

in
Report Time2019-03-23 08:15:00
UTC Time2019-03-23 08:16:35
Flight Rules vfr VFR
WindCalm
Visibility9999 m
Phenomena:N/A
Clouds:N/A
CeilingNone
Temp06°C
Dew Point06°C (100% RH)
AAT5.1°C
QNH1020 hPa
Raw Report
KZPH 230815Z AUTO 00000KT 10SM CLR 06/06 A3012 RMK AO2 T00600056
PWINO=

Extra information for KZPH:More info

Social comments